Fibre, Michigan
Current Conditions -  °F | °C
As of 8:35 PM on Sunday 21 Dec 2014 (Local Time) from KCIU Reporting Station
Overcast Overcast  
Wind Chill: 23°   Ceiling: 1300
Heat Index: 32°   Visibility: 6mi
Dew Point: 32°   Wind: 12mph
Humidity: 100%   Direction: 140°SE
Pressure: 30.11"   Gusts: NA
Location:  46.1892°N, 84.6083°W
Report Text: KCIU 220135Z AUTO 14010KT 6SM SCT008 BKN013 OVC037 00/00 A3011 RMK AO1
Loading
Personal Weather Stations






























Interactive Weather Map New forecast layout! Learn more

10-Day Weather Forecast

Advertisements
Track Severe Weather on mobile